Rexford, Montana
Current Conditions -  °F | °C
As of 3:15 AM on Friday 19 Dec 2014 (Local Time) from K65S Reporting Station
Haze Haze  
Wind Chill: 36°   Ceiling: 1300
Heat Index: 36°   Visibility: 1.7mi
Dew Point: 34°   Wind: 0mph
Humidity: 93%   Direction: NA
Pressure: 29.93"   Gusts: NA
Location:  48.9°N, 115.17°W
Report Text: K65S 191015Z AUTO 00000KT 1 3/4SM BR BKN013 OVC023 02/01 A2993 RMK AO2
Loading
Personal Weather Stations






























Interactive Weather Map New forecast layout! Learn more

10-Day Weather Forecast

Advertisements
Track Severe Weather on mobile